sensor_id;sensor_type;location;lat;lon;timestamp;temperature;humidity
43183;DHT22;28802;38.578;-0.066;2023-05-02T00:01:56;18.80;99.90
43183;DHT22;28802;38.578;-0.066;2023-05-02T00:04:22;18.70;99.90
43183;DHT22;28802;38.578;-0.066;2023-05-02T00:06:51;18.60;99.90
43183;DHT22;28802;38.578;-0.066;2023-05-02T00:09:17;18.60;99.90
43183;DHT22;28802;38.578;-0.066;2023-05-02T00:11:43;18.50;99.90
43183;DHT22;28802;38.578;-0.066;2023-05-02T00:14:09;18.50;99.90
43183;DHT22;28802;38.578;-0.066;2023-05-02T00:16:35;18.50;99.90
43183;DHT22;28802;38.578;-0.066;2023-05-02T00:19:01;18.40;99.90
43183;DHT22;28802;38.578;-0.066;2023-05-02T00:21:27;18.40;99.90
43183;DHT22;28802;38.578;-0.066;2023-05-02T00:23:54;18.40;99.90
43183;DHT22;28802;38.578;-0.066;2023-05-02T00:26:23;18.40;99.90
43183;DHT22;28802;38.578;-0.066;2023-05-02T00:28:49;18.40;99.90
43183;DHT22;28802;38.578;-0.066;2023-05-02T00:31:15;18.40;99.90
43183;DHT22;28802;38.578;-0.066;2023-05-02T00:33:41;18.50;99.90
43183;DHT22;28802;38.578;-0.066;2023-05-02T00:36:14;18.40;99.90
43183;DHT22;28802;38.578;-0.066;2023-05-02T00:38:40;18.40;99.90
43183;DHT22;28802;38.578;-0.066;2023-05-02T00:41:06;18.40;99.90
43183;DHT22;28802;38.578;-0.066;2023-05-02T00:43:32;18.40;99.90
43183;DHT22;28802;38.578;-0.066;2023-05-02T00:45:58;18.40;99.90
43183;DHT22;28802;38.578;-0.066;2023-05-02T00:48:25;18.30;99.90
43183;DHT22;28802;38.578;-0.066;2023-05-02T00:50:51;18.30;99.90
43183;DHT22;28802;38.578;-0.066;2023-05-02T00:53:17;18.30;99.90
43183;DHT22;28802;38.578;-0.066;2023-05-02T00:55:43;18.30;99.90
43183;DHT22;28802;38.578;-0.066;2023-05-02T00:58:13;18.30;99.90
43183;DHT22;28802;38.578;-0.066;2023-05-02T01:03:24;18.30;99.90
43183;DHT22;28802;38.578;-0.066;2023-05-02T01:14:33;18.10;99.90
43183;DHT22;28802;38.578;-0.066;2023-05-02T01:17:03;18.20;99.90
43183;DHT22;28802;38.578;-0.066;2023-05-02T01:19:34;18.10;99.90
43183;DHT22;28802;38.578;-0.066;2023-05-02T01:22:06;18.10;99.90
43183;DHT22;28802;38.578;-0.066;2023-05-02T01:30:27;18.10;99.90
43183;DHT22;28802;38.578;-0.066;2023-05-02T01:32:56;18.10;99.90
43183;DHT22;28802;38.578;-0.066;2023-05-02T01:35:23;18.10;99.90
43183;DHT22;28802;38.578;-0.066;2023-05-02T01:37:53;18.10;99.90
43183;DHT22;28802;38.578;-0.066;2023-05-02T01:40:21;18.10;99.90
43183;DHT22;28802;38.578;-0.066;2023-05-02T01:42:50;18.10;99.90
43183;DHT22;28802;38.578;-0.066;2023-05-02T01:45:18;18.10;99.90
43183;DHT22;28802;38.578;-0.066;2023-05-02T01:47:45;18.10;99.90
43183;DHT22;28802;38.578;-0.066;2023-05-02T01:50:15;18.10;99.90
43183;DHT22;28802;38.578;-0.066;2023-05-02T01:52:43;18.10;99.90
43183;DHT22;28802;38.578;-0.066;2023-05-02T01:55:13;18.00;99.90
43183;DHT22;28802;38.578;-0.066;2023-05-02T01:57:41;18.00;99.90
43183;DHT22;28802;38.578;-0.066;2023-05-02T02:00:09;18.10;99.90
43183;DHT22;28802;38.578;-0.066;2023-05-02T02:02:40;18.10;99.90
43183;DHT22;28802;38.578;-0.066;2023-05-02T02:05:08;18.00;99.90
43183;DHT22;28802;38.578;-0.066;2023-05-02T02:07:36;18.00;99.90
43183;DHT22;28802;38.578;-0.066;2023-05-02T02:10:02;18.00;99.90
43183;DHT22;28802;38.578;-0.066;2023-05-02T02:12:38;18.00;99.90
43183;DHT22;28802;38.578;-0.066;2023-05-02T02:15:18;17.90;99.90
43183;DHT22;28802;38.578;-0.066;2023-05-02T02:17:48;17.90;99.90
43183;DHT22;28802;38.578;-0.066;2023-05-02T02:20:21;17.80;99.90
43183;DHT22;28802;38.578;-0.066;2023-05-02T02:22:47;17.80;99.90
43183;DHT22;28802;38.578;-0.066;2023-05-02T02:25:15;17.80;99.90
43183;DHT22;28802;38.578;-0.066;2023-05-02T02:27:42;17.80;99.90
43183;DHT22;28802;38.578;-0.066;2023-05-02T02:30:09;17.80;99.90
43183;DHT22;28802;38.578;-0.066;2023-05-02T02:32:36;17.80;99.90
43183;DHT22;28802;38.578;-0.066;2023-05-02T02:35:03;17.80;99.90
43183;DHT22;28802;38.578;-0.066;2023-05-02T02:37:32;17.70;99.90
43183;DHT22;28802;38.578;-0.066;2023-05-02T02:40:20;17.70;99.90
43183;DHT22;28802;38.578;-0.066;2023-05-02T02:46:01;17.70;99.90
43183;DHT22;28802;38.578;-0.066;2023-05-02T02:48:36;17.70;99.90
43183;DHT22;28802;38.578;-0.066;2023-05-02T02:51:09;17.60;99.90
43183;DHT22;28802;38.578;-0.066;2023-05-02T02:56:25;17.60;99.90
43183;DHT22;28802;38.578;-0.066;2023-05-02T02:59:19;17.50;99.90
43183;DHT22;28802;38.578;-0.066;2023-05-02T03:02:06;17.60;99.90
43183;DHT22;28802;38.578;-0.066;2023-05-02T03:04:38;17.50;99.90
43183;DHT22;28802;38.578;-0.066;2023-05-02T03:07:06;17.40;99.90
43183;DHT22;28802;38.578;-0.066;2023-05-02T03:09:46;17.50;99.90
43183;DHT22;28802;38.578;-0.066;2023-05-02T03:12:18;17.50;99.90
43183;DHT22;28802;38.578;-0.066;2023-05-02T03:14:44;17.40;99.90
43183;DHT22;28802;38.578;-0.066;2023-05-02T03:17:10;17.30;99.90
43183;DHT22;28802;38.578;-0.066;2023-05-02T03:19:36;17.30;99.90
43183;DHT22;28802;38.578;-0.066;2023-05-02T03:22:04;17.20;99.90
43183;DHT22;28802;38.578;-0.066;2023-05-02T03:24:31;17.20;99.90
43183;DHT22;28802;38.578;-0.066;2023-05-02T03:26:57;17.10;99.90
43183;DHT22;28802;38.578;-0.066;2023-05-02T03:29:28;17.10;99.90
43183;DHT22;28802;38.578;-0.066;2023-05-02T03:31:54;17.00;99.90
43183;DHT22;28802;38.578;-0.066;2023-05-02T03:34:21;17.00;99.90
43183;DHT22;28802;38.578;-0.066;2023-05-02T03:36:49;17.00;99.90
43183;DHT22;28802;38.578;-0.066;2023-05-02T03:39:16;16.90;99.90
43183;DHT22;28802;38.578;-0.066;2023-05-02T03:41:43;16.80;99.90
43183;DHT22;28802;38.578;-0.066;2023-05-02T03:44:13;16.80;99.90
43183;DHT22;28802;38.578;-0.066;2023-05-02T03:46:39;16.80;99.90
43183;DHT22;28802;38.578;-0.066;2023-05-02T03:49:09;16.80;99.90
43183;DHT22;28802;38.578;-0.066;2023-05-02T03:51:35;16.80;99.90
43183;DHT22;28802;38.578;-0.066;2023-05-02T03:54:02;16.80;99.90
43183;DHT22;28802;38.578;-0.066;2023-05-02T03:56:29;16.70;99.90
43183;DHT22;28802;38.578;-0.066;2023-05-02T03:59:13;16.60;99.90
43183;DHT22;28802;38.578;-0.066;2023-05-02T04:01:40;16.60;99.90
43183;DHT22;28802;38.578;-0.066;2023-05-02T04:04:07;16.60;99.90
43183;DHT22;28802;38.578;-0.066;2023-05-02T04:06:37;16.60;99.90
43183;DHT22;28802;38.578;-0.066;2023-05-02T04:09:06;16.60;99.90
43183;DHT22;28802;38.578;-0.066;2023-05-02T04:11:38;16.60;99.90
43183;DHT22;28802;38.578;-0.066;2023-05-02T04:14:06;16.50;99.90
43183;DHT22;28802;38.578;-0.066;2023-05-02T04:16:32;16.50;99.90
43183;DHT22;28802;38.578;-0.066;2023-05-02T04:18:59;16.50;99.90
43183;DHT22;28802;38.578;-0.066;2023-05-02T04:21:26;16.40;99.90
43183;DHT22;28802;38.578;-0.066;2023-05-02T04:23:52;16.50;99.90
43183;DHT22;28802;38.578;-0.066;2023-05-02T04:26:18;16.50;99.90
43183;DHT22;28802;38.578;-0.066;2023-05-02T04:28:57;16.60;99.90
43183;DHT22;28802;38.578;-0.066;2023-05-02T04:31:23;16.60;99.90
43183;DHT22;28802;38.578;-0.066;2023-05-02T04:33:50;16.70;99.90
43183;DHT22;28802;38.578;-0.066;2023-05-02T04:36:20;16.60;99.90
43183;DHT22;28802;38.578;-0.066;2023-05-02T04:38:46;16.60;99.90
43183;DHT22;28802;38.578;-0.066;2023-05-02T04:41:14;16.50;99.90
43183;DHT22;28802;38.578;-0.066;2023-05-02T04:43:46;16.40;99.90
43183;DHT22;28802;38.578;-0.066;2023-05-02T04:46:14;16.30;99.90
43183;DHT22;28802;38.578;-0.066;2023-05-02T04:48:40;16.40;99.90
43183;DHT22;28802;38.578;-0.066;2023-05-02T04:51:10;16.40;99.90
43183;DHT22;28802;38.578;-0.066;2023-05-02T04:53:36;16.40;99.90
43183;DHT22;28802;38.578;-0.066;2023-05-02T04:56:03;16.40;99.90
43183;DHT22;28802;38.578;-0.066;2023-05-02T04:58:31;16.50;99.90
43183;DHT22;28802;38.578;-0.066;2023-05-02T05:01:02;16.50;99.90
43183;DHT22;28802;38.578;-0.066;2023-05-02T05:03:28;16.50;99.90
43183;DHT22;28802;38.578;-0.066;2023-05-02T05:05:56;16.40;99.90
43183;DHT22;28802;38.578;-0.066;2023-05-02T05:08:23;16.40;99.90
43183;DHT22;28802;38.578;-0.066;2023-05-02T05:10:50;16.40;99.90
43183;DHT22;28802;38.578;-0.066;2023-05-02T05:13:16;16.50;99.90
43183;DHT22;28802;38.578;-0.066;2023-05-02T05:15:46;16.50;99.90
43183;DHT22;28802;38.578;-0.066;2023-05-02T05:18:13;16.60;99.90
43183;DHT22;28802;38.578;-0.066;2023-05-02T05:20:39;16.50;99.90
43183;DHT22;28802;38.578;-0.066;2023-05-02T05:23:06;16.60;99.90
43183;DHT22;28802;38.578;-0.066;2023-05-02T05:25:33;16.50;99.90
43183;DHT22;28802;38.578;-0.066;2023-05-02T05:27:59;16.60;99.90
43183;DHT22;28802;38.578;-0.066;2023-05-02T05:30:25;17.00;99.90
43183;DHT22;28802;38.578;-0.066;2023-05-02T05:32:52;17.30;99.90
43183;DHT22;28802;38.578;-0.066;2023-05-02T05:35:18;18.00;99.90
43183;DHT22;28802;38.578;-0.066;2023-05-02T05:37:45;18.50;99.90
43183;DHT22;28802;38.578;-0.066;2023-05-02T05:40:14;18.90;99.90
43183;DHT22;28802;38.578;-0.066;2023-05-02T05:42:44;19.50;99.90
43183;DHT22;28802;38.578;-0.066;2023-05-02T05:45:16;19.90;99.90
43183;DHT22;28802;38.578;-0.066;2023-05-02T05:47:44;20.10;99.90
43183;DHT22;28802;38.578;-0.066;2023-05-02T05:50:11;20.30;99.90
43183;DHT22;28802;38.578;-0.066;2023-05-02T05:52:37;20.60;99.90
43183;DHT22;28802;38.578;-0.066;2023-05-02T05:55:04;20.70;99.90
43183;DHT22;28802;38.578;-0.066;2023-05-02T05:57:31;20.90;99.90
43183;DHT22;28802;38.578;-0.066;2023-05-02T05:59:56;21.20;99.90
43183;DHT22;28802;38.578;-0.066;2023-05-02T06:02:23;21.30;99.90
43183;DHT22;28802;38.578;-0.066;2023-05-02T06:04:49;20.70;99.90
43183;DHT22;28802;38.578;-0.066;2023-05-02T06:07:18;20.70;99.90
43183;DHT22;28802;38.578;-0.066;2023-05-02T06:09:44;21.70;99.90
43183;DHT22;28802;38.578;-0.066;2023-05-02T06:12:11;22.50;99.90
43183;DHT22;28802;38.578;-0.066;2023-05-02T06:14:38;23.20;99.90
43183;DHT22;28802;38.578;-0.066;2023-05-02T06:17:04;24.30;99.90
43183;DHT22;28802;38.578;-0.066;2023-05-02T06:19:30;24.70;99.90
43183;DHT22;28802;38.578;-0.066;2023-05-02T06:21:56;25.00;99.90
43183;DHT22;28802;38.578;-0.066;2023-05-02T06:24:22;25.00;99.90
43183;DHT22;28802;38.578;-0.066;2023-05-02T06:26:48;25.10;99.90
43183;DHT22;28802;38.578;-0.066;2023-05-02T06:29:16;25.60;99.90
43183;DHT22;28802;38.578;-0.066;2023-05-02T06:31:42;26.10;99.90
43183;DHT22;28802;38.578;-0.066;2023-05-02T06:34:08;25.70;99.90
43183;DHT22;28802;38.578;-0.066;2023-05-02T06:36:34;26.20;99.90
43183;DHT22;28802;38.578;-0.066;2023-05-02T06:39:00;26.80;99.90
43183;DHT22;28802;38.578;-0.066;2023-05-02T06:41:26;27.60;99.90
43183;DHT22;28802;38.578;-0.066;2023-05-02T06:43:52;28.30;99.90
43183;DHT22;28802;38.578;-0.066;2023-05-02T06:46:18;28.30;99.90
43183;DHT22;28802;38.578;-0.066;2023-05-02T06:48:45;26.50;99.90
43183;DHT22;28802;38.578;-0.066;2023-05-02T06:51:13;25.20;99.90
43183;DHT22;28802;38.578;-0.066;2023-05-02T06:53:39;24.60;99.90
43183;DHT22;28802;38.578;-0.066;2023-05-02T06:56:06;25.10;99.90
43183;DHT22;28802;38.578;-0.066;2023-05-02T06:58:32;26.30;99.90
43183;DHT22;28802;38.578;-0.066;2023-05-02T07:00:58;27.70;99.90
43183;DHT22;28802;38.578;-0.066;2023-05-02T07:03:24;28.50;99.90
43183;DHT22;28802;38.578;-0.066;2023-05-02T07:05:50;28.90;99.90
43183;DHT22;28802;38.578;-0.066;2023-05-02T07:08:16;29.00;99.90
43183;DHT22;28802;38.578;-0.066;2023-05-02T07:10:43;29.40;99.90
43183;DHT22;28802;38.578;-0.066;2023-05-02T07:13:09;28.30;99.90
43183;DHT22;28802;38.578;-0.066;2023-05-02T07:15:35;26.90;99.90
43183;DHT22;28802;38.578;-0.066;2023-05-02T07:18:00;26.90;99.90
43183;DHT22;28802;38.578;-0.066;2023-05-02T07:20:27;26.50;99.90
43183;DHT22;28802;38.578;-0.066;2023-05-02T07:22:53;26.30;99.90
43183;DHT22;28802;38.578;-0.066;2023-05-02T07:25:18;26.90;99.90
43183;DHT22;28802;38.578;-0.066;2023-05-02T07:27:44;27.40;99.90
43183;DHT22;28802;38.578;-0.066;2023-05-02T07:30:11;26.60;99.90
43183;DHT22;28802;38.578;-0.066;2023-05-02T07:32:37;26.00;99.90
43183;DHT22;28802;38.578;-0.066;2023-05-02T07:35:03;25.80;99.90
43183;DHT22;28802;38.578;-0.066;2023-05-02T07:37:33;26.30;99.90
43183;DHT22;28802;38.578;-0.066;2023-05-02T07:40:00;25.80;99.90
43183;DHT22;28802;38.578;-0.066;2023-05-02T07:42:29;25.50;99.90
43183;DHT22;28802;38.578;-0.066;2023-05-02T07:44:55;25.50;99.90
43183;DHT22;28802;38.578;-0.066;2023-05-02T07:47:21;25.60;99.90
43183;DHT22;28802;38.578;-0.066;2023-05-02T07:49:52;25.40;99.90
43183;DHT22;28802;38.578;-0.066;2023-05-02T07:52:19;25.30;99.90
43183;DHT22;28802;38.578;-0.066;2023-05-02T07:54:46;25.80;99.90
43183;DHT22;28802;38.578;-0.066;2023-05-02T07:57:12;24.70;99.90
43183;DHT22;28802;38.578;-0.066;2023-05-02T07:59:38;24.00;99.90
43183;DHT22;28802;38.578;-0.066;2023-05-02T08:02:04;23.90;99.90
43183;DHT22;28802;38.578;-0.066;2023-05-02T08:04:33;24.10;99.90
43183;DHT22;28802;38.578;-0.066;2023-05-02T08:07:00;24.00;99.90
43183;DHT22;28802;38.578;-0.066;2023-05-02T08:09:26;23.70;99.90
43183;DHT22;28802;38.578;-0.066;2023-05-02T08:11:52;23.40;99.90
43183;DHT22;28802;38.578;-0.066;2023-05-02T08:14:17;23.40;99.90
43183;DHT22;28802;38.578;-0.066;2023-05-02T08:16:43;24.00;99.90
43183;DHT22;28802;38.578;-0.066;2023-05-02T08:19:09;24.70;99.90
43183;DHT22;28802;38.578;-0.066;2023-05-02T08:21:35;25.00;99.90
43183;DHT22;28802;38.578;-0.066;2023-05-02T08:24:02;25.10;99.90
43183;DHT22;28802;38.578;-0.066;2023-05-02T08:26:28;24.80;99.90
43183;DHT22;28802;38.578;-0.066;2023-05-02T08:28:56;24.10;99.90
43183;DHT22;28802;38.578;-0.066;2023-05-02T08:31:22;23.40;99.90
43183;DHT22;28802;38.578;-0.066;2023-05-02T08:33:48;23.20;99.90
43183;DHT22;28802;38.578;-0.066;2023-05-02T08:36:24;23.40;99.90
43183;DHT22;28802;38.578;-0.066;2023-05-02T08:38:50;23.40;99.90
43183;DHT22;28802;38.578;-0.066;2023-05-02T08:41:17;23.40;99.90
43183;DHT22;28802;38.578;-0.066;2023-05-02T08:43:44;23.20;99.90
43183;DHT22;28802;38.578;-0.066;2023-05-02T08:46:12;23.20;99.90
43183;DHT22;28802;38.578;-0.066;2023-05-02T08:48:40;23.20;99.90
43183;DHT22;28802;38.578;-0.066;2023-05-02T08:51:13;23.40;99.90
43183;DHT22;28802;38.578;-0.066;2023-05-02T08:53:41;23.50;99.90
43183;DHT22;28802;38.578;-0.066;2023-05-02T08:56:08;23.90;99.90
43183;DHT22;28802;38.578;-0.066;2023-05-02T08:58:36;23.70;99.90
43183;DHT22;28802;38.578;-0.066;2023-05-02T09:01:12;23.70;99.90
43183;DHT22;28802;38.578;-0.066;2023-05-02T09:03:39;23.90;99.90
43183;DHT22;28802;38.578;-0.066;2023-05-02T09:06:10;24.70;99.90
43183;DHT22;28802;38.578;-0.066;2023-05-02T09:08:39;25.40;99.90
43183;DHT22;28802;38.578;-0.066;2023-05-02T09:11:07;25.30;99.90
43183;DHT22;28802;38.578;-0.066;2023-05-02T09:13:39;25.00;99.90
43183;DHT22;28802;38.578;-0.066;2023-05-02T09:16:11;25.40;99.90
43183;DHT22;28802;38.578;-0.066;2023-05-02T09:18:48;26.20;99.90
43183;DHT22;28802;38.578;-0.066;2023-05-02T09:21:24;25.80;99.90
43183;DHT22;28802;38.578;-0.066;2023-05-02T09:23:55;25.30;99.90
43183;DHT22;28802;38.578;-0.066;2023-05-02T09:26:27;25.70;99.90
43183;DHT22;28802;38.578;-0.066;2023-05-02T09:29:04;25.90;99.90
43183;DHT22;28802;38.578;-0.066;2023-05-02T09:31:32;26.00;99.90
43183;DHT22;28802;38.578;-0.066;2023-05-02T09:34:15;25.90;99.90
43183;DHT22;28802;38.578;-0.066;2023-05-02T09:36:45;25.80;99.90
43183;DHT22;28802;38.578;-0.066;2023-05-02T09:41:42;26.00;99.90
43183;DHT22;28802;38.578;-0.066;2023-05-02T09:44:12;25.40;99.90
43183;DHT22;28802;38.578;-0.066;2023-05-02T09:46:42;25.20;99.90
43183;DHT22;28802;38.578;-0.066;2023-05-02T09:49:08;25.00;99.90
43183;DHT22;28802;38.578;-0.066;2023-05-02T09:51:34;25.40;99.90
43183;DHT22;28802;38.578;-0.066;2023-05-02T09:54:00;25.40;99.90
43183;DHT22;28802;38.578;-0.066;2023-05-02T09:56:27;25.20;99.90
43183;DHT22;28802;38.578;-0.066;2023-05-02T09:59:12;24.80;99.90
43183;DHT22;28802;38.578;-0.066;2023-05-02T10:01:40;25.10;99.90
43183;DHT22;28802;38.578;-0.066;2023-05-02T10:04:11;24.90;99.90
43183;DHT22;28802;38.578;-0.066;2023-05-02T10:06:44;24.70;99.90
43183;DHT22;28802;38.578;-0.066;2023-05-02T10:09:10;25.30;99.90
43183;DHT22;28802;38.578;-0.066;2023-05-02T10:11:38;25.60;99.90
43183;DHT22;28802;38.578;-0.066;2023-05-02T10:14:11;25.30;99.90
43183;DHT22;28802;38.578;-0.066;2023-05-02T10:19:23;25.10;99.90
43183;DHT22;28802;38.578;-0.066;2023-05-02T10:21:52;24.80;99.90
43183;DHT22;28802;38.578;-0.066;2023-05-02T10:24:20;25.00;99.90
43183;DHT22;28802;38.578;-0.066;2023-05-02T10:26:47;24.40;99.90
43183;DHT22;28802;38.578;-0.066;2023-05-02T10:29:15;24.90;99.90
43183;DHT22;28802;38.578;-0.066;2023-05-02T10:31:43;24.50;99.90
43183;DHT22;28802;38.578;-0.066;2023-05-02T10:34:10;24.60;99.90
43183;DHT22;28802;38.578;-0.066;2023-05-02T10:36:36;24.90;99.90
43183;DHT22;28802;38.578;-0.066;2023-05-02T10:39:02;24.50;99.90
43183;DHT22;28802;38.578;-0.066;2023-05-02T10:41:30;24.30;99.90
43183;DHT22;28802;38.578;-0.066;2023-05-02T10:43:58;24.10;99.90
43183;DHT22;28802;38.578;-0.066;2023-05-02T10:46:35;24.30;99.90
43183;DHT22;28802;38.578;-0.066;2023-05-02T10:49:06;24.40;99.90
43183;DHT22;28802;38.578;-0.066;2023-05-02T10:51:34;23.90;99.90
43183;DHT22;28802;38.578;-0.066;2023-05-02T10:57:14;23.60;99.90
43183;DHT22;28802;38.578;-0.066;2023-05-02T10:59:41;23.80;99.90
43183;DHT22;28802;38.578;-0.066;2023-05-02T11:05:02;23.60;99.90
43183;DHT22;28802;38.578;-0.066;2023-05-02T11:07:30;23.50;99.90
43183;DHT22;28802;38.578;-0.066;2023-05-02T11:12:49;23.10;99.90
43183;DHT22;28802;38.578;-0.066;2023-05-02T11:18:11;23.80;99.90
43183;DHT22;28802;38.578;-0.066;2023-05-02T11:20:42;24.40;99.90
43183;DHT22;28802;38.578;-0.066;2023-05-02T11:25:54;23.80;99.90
43183;DHT22;28802;38.578;-0.066;2023-05-02T11:31:04;23.30;99.90
43183;DHT22;28802;38.578;-0.066;2023-05-02T11:33:30;22.90;99.90
43183;DHT22;28802;38.578;-0.066;2023-05-02T11:35:56;22.80;99.90
43183;DHT22;28802;38.578;-0.066;2023-05-02T11:38:24;22.80;99.90
43183;DHT22;28802;38.578;-0.066;2023-05-02T11:40:56;23.40;99.90
43183;DHT22;28802;38.578;-0.066;2023-05-02T11:43:24;23.80;99.90
43183;DHT22;28802;38.578;-0.066;2023-05-02T11:45:51;23.80;99.90
43183;DHT22;28802;38.578;-0.066;2023-05-02T11:48:19;23.40;99.90
43183;DHT22;28802;38.578;-0.066;2023-05-02T11:53:15;23.10;99.90
43183;DHT22;28802;38.578;-0.066;2023-05-02T11:55:49;22.80;99.90
43183;DHT22;28802;38.578;-0.066;2023-05-02T11:58:23;22.60;99.90
43183;DHT22;28802;38.578;-0.066;2023-05-02T12:00:52;22.50;99.90
43183;DHT22;28802;38.578;-0.066;2023-05-02T12:03:26;22.50;99.90
43183;DHT22;28802;38.578;-0.066;2023-05-02T12:05:53;22.60;99.90
43183;DHT22;28802;38.578;-0.066;2023-05-02T12:08:26;22.40;99.90
43183;DHT22;28802;38.578;-0.066;2023-05-02T12:10:54;22.50;99.90
43183;DHT22;28802;38.578;-0.066;2023-05-02T12:13:22;22.60;99.90
43183;DHT22;28802;38.578;-0.066;2023-05-02T12:15:49;22.40;99.90
43183;DHT22;28802;38.578;-0.066;2023-05-02T12:18:16;22.20;99.90
43183;DHT22;28802;38.578;-0.066;2023-05-02T12:20:42;22.50;99.90
43183;DHT22;28802;38.578;-0.066;2023-05-02T12:23:09;22.70;99.90
43183;DHT22;28802;38.578;-0.066;2023-05-02T12:25:41;22.20;99.90
43183;DHT22;28802;38.578;-0.066;2023-05-02T12:28:08;22.50;99.90
43183;DHT22;28802;38.578;-0.066;2023-05-02T12:30:37;22.20;99.90
43183;DHT22;28802;38.578;-0.066;2023-05-02T12:33:03;22.20;99.90
43183;DHT22;28802;38.578;-0.066;2023-05-02T12:35:31;22.20;99.90
43183;DHT22;28802;38.578;-0.066;2023-05-02T12:40:36;22.00;99.90
43183;DHT22;28802;38.578;-0.066;2023-05-02T12:43:03;22.30;99.90
43183;DHT22;28802;38.578;-0.066;2023-05-02T12:45:31;22.30;99.90
43183;DHT22;28802;38.578;-0.066;2023-05-02T12:48:25;22.40;99.90
43183;DHT22;28802;38.578;-0.066;2023-05-02T12:50:53;22.40;99.90
43183;DHT22;28802;38.578;-0.066;2023-05-02T12:53:38;21.90;99.90
43183;DHT22;28802;38.578;-0.066;2023-05-02T12:56:09;22.30;99.90
43183;DHT22;28802;38.578;-0.066;2023-05-02T12:58:45;22.40;99.90
43183;DHT22;28802;38.578;-0.066;2023-05-02T13:01:13;22.10;99.90
43183;DHT22;28802;38.578;-0.066;2023-05-02T13:03:41;22.40;99.90
43183;DHT22;28802;38.578;-0.066;2023-05-02T13:06:07;22.20;99.90
43183;DHT22;28802;38.578;-0.066;2023-05-02T13:08:34;22.10;99.90
43183;DHT22;28802;38.578;-0.066;2023-05-02T13:11:01;22.00;99.90
43183;DHT22;28802;38.578;-0.066;2023-05-02T13:13:28;21.90;99.90
43183;DHT22;28802;38.578;-0.066;2023-05-02T13:15:54;21.70;99.90
43183;DHT22;28802;38.578;-0.066;2023-05-02T13:18:21;21.70;99.90
43183;DHT22;28802;38.578;-0.066;2023-05-02T13:20:47;21.60;99.90
43183;DHT22;28802;38.578;-0.066;2023-05-02T13:23:13;21.40;99.90
43183;DHT22;28802;38.578;-0.066;2023-05-02T13:25:41;21.40;99.90
43183;DHT22;28802;38.578;-0.066;2023-05-02T13:28:07;21.50;99.90
43183;DHT22;28802;38.578;-0.066;2023-05-02T13:30:33;21.60;99.90
43183;DHT22;28802;38.578;-0.066;2023-05-02T13:32:59;21.50;99.90
43183;DHT22;28802;38.578;-0.066;2023-05-02T13:35:25;21.50;99.90
43183;DHT22;28802;38.578;-0.066;2023-05-02T13:37:51;21.70;99.90
43183;DHT22;28802;38.578;-0.066;2023-05-02T13:40:17;21.60;99.90
43183;DHT22;28802;38.578;-0.066;2023-05-02T13:42:43;21.60;99.90
43183;DHT22;28802;38.578;-0.066;2023-05-02T13:45:10;21.40;99.90
43183;DHT22;28802;38.578;-0.066;2023-05-02T13:47:36;21.40;99.90
43183;DHT22;28802;38.578;-0.066;2023-05-02T13:50:02;21.20;99.90
43183;DHT22;28802;38.578;-0.066;2023-05-02T13:52:27;21.50;99.90
43183;DHT22;28802;38.578;-0.066;2023-05-02T13:54:53;21.40;99.90
43183;DHT22;28802;38.578;-0.066;2023-05-02T13:57:19;21.30;99.90
43183;DHT22;28802;38.578;-0.066;2023-05-02T13:59:45;21.40;99.90
43183;DHT22;28802;38.578;-0.066;2023-05-02T14:02:11;21.50;99.90
43183;DHT22;28802;38.578;-0.066;2023-05-02T14:04:37;21.40;99.90
43183;DHT22;28802;38.578;-0.066;2023-05-02T14:07:03;21.30;99.90
43183;DHT22;28802;38.578;-0.066;2023-05-02T14:09:29;21.40;99.90
43183;DHT22;28802;38.578;-0.066;2023-05-02T14:11:55;21.30;99.90
43183;DHT22;28802;38.578;-0.066;2023-05-02T14:14:23;21.30;99.90
43183;DHT22;28802;38.578;-0.066;2023-05-02T14:16:49;21.30;99.90
43183;DHT22;28802;38.578;-0.066;2023-05-02T14:19:15;21.30;99.90
43183;DHT22;28802;38.578;-0.066;2023-05-02T14:21:41;21.20;99.90
43183;DHT22;28802;38.578;-0.066;2023-05-02T14:24:07;21.20;99.90
43183;DHT22;28802;38.578;-0.066;2023-05-02T14:26:33;21.00;99.90
43183;DHT22;28802;38.578;-0.066;2023-05-02T14:28:59;20.90;99.90
43183;DHT22;28802;38.578;-0.066;2023-05-02T14:31:25;20.90;99.90
43183;DHT22;28802;38.578;-0.066;2023-05-02T14:33:51;21.10;99.90
43183;DHT22;28802;38.578;-0.066;2023-05-02T14:36:17;21.10;99.90
43183;DHT22;28802;38.578;-0.066;2023-05-02T14:38:43;20.90;99.90
43183;DHT22;28802;38.578;-0.066;2023-05-02T14:41:09;20.90;99.90
43183;DHT22;28802;38.578;-0.066;2023-05-02T14:43:35;21.00;99.90
43183;DHT22;28802;38.578;-0.066;2023-05-02T14:46:01;21.00;99.90
43183;DHT22;28802;38.578;-0.066;2023-05-02T14:48:28;20.90;99.90
43183;DHT22;28802;38.578;-0.066;2023-05-02T14:50:54;21.00;99.90
43183;DHT22;28802;38.578;-0.066;2023-05-02T14:53:21;20.90;99.90
43183;DHT22;28802;38.578;-0.066;2023-05-02T14:55:47;20.80;99.90
43183;DHT22;28802;38.578;-0.066;2023-05-02T14:58:13;21.00;99.90
43183;DHT22;28802;38.578;-0.066;2023-05-02T15:00:45;21.00;99.90
43183;DHT22;28802;38.578;-0.066;2023-05-02T15:03:11;21.00;99.90
43183;DHT22;28802;38.578;-0.066;2023-05-02T15:05:38;20.90;99.90
43183;DHT22;28802;38.578;-0.066;2023-05-02T15:08:05;21.00;99.90
43183;DHT22;28802;38.578;-0.066;2023-05-02T15:10:31;20.90;99.90
43183;DHT22;28802;38.578;-0.066;2023-05-02T15:13:00;20.90;99.90
43183;DHT22;28802;38.578;-0.066;2023-05-02T15:15:28;21.00;99.90
43183;DHT22;28802;38.578;-0.066;2023-05-02T15:17:54;21.00;99.90
43183;DHT22;28802;38.578;-0.066;2023-05-02T15:20:20;20.90;99.90
43183;DHT22;28802;38.578;-0.066;2023-05-02T15:22:46;21.00;99.90
43183;DHT22;28802;38.578;-0.066;2023-05-02T15:25:12;20.90;99.90
43183;DHT22;28802;38.578;-0.066;2023-05-02T15:27:38;21.00;99.90
43183;DHT22;28802;38.578;-0.066;2023-05-02T15:30:04;21.00;99.90
43183;DHT22;28802;38.578;-0.066;2023-05-02T15:32:33;21.00;99.90
43183;DHT22;28802;38.578;-0.066;2023-05-02T15:34:59;21.00;99.90
43183;DHT22;28802;38.578;-0.066;2023-05-02T15:37:25;20.90;99.90
43183;DHT22;28802;38.578;-0.066;2023-05-02T15:39:51;21.00;99.90
43183;DHT22;28802;38.578;-0.066;2023-05-02T15:42:17;20.90;99.90
43183;DHT22;28802;38.578;-0.066;2023-05-02T15:44:43;21.10;99.90
43183;DHT22;28802;38.578;-0.066;2023-05-02T15:47:09;21.10;99.90
43183;DHT22;28802;38.578;-0.066;2023-05-02T15:49:35;21.00;99.90
43183;DHT22;28802;38.578;-0.066;2023-05-02T15:52:01;20.90;99.90
43183;DHT22;28802;38.578;-0.066;2023-05-02T15:54:28;20.90;99.90
43183;DHT22;28802;38.578;-0.066;2023-05-02T15:56:54;20.90;99.90
43183;DHT22;28802;38.578;-0.066;2023-05-02T15:59:20;20.80;99.90
43183;DHT22;28802;38.578;-0.066;2023-05-02T16:01:46;20.70;99.90
43183;DHT22;28802;38.578;-0.066;2023-05-02T16:04:12;20.70;99.90
43183;DHT22;28802;38.578;-0.066;2023-05-02T16:06:38;20.70;99.90
43183;DHT22;28802;38.578;-0.066;2023-05-02T16:09:06;20.70;99.90
43183;DHT22;28802;38.578;-0.066;2023-05-02T16:11:33;20.70;99.90